SSEC Globe Logo

Space Science and Engineering Center

Regional Terminal Forecasts

KMSN 041134Z 0412/0512 31006KT P6SM SKC FM041500 31009G18KT
     P6SM BKN100 FM042300 VRB03KT P6SM BKN100 FM051000
     12008KT P6SM OVC150=
KMKE 041134Z 0412/0518 29008KT P6SM FEW250 FM041600
     30012G20KT P6SM SCT200 FM042300 VRB04KT P6SM BKN100
     FM051000 12009KT P6SM OVC150 FM051200 14014G23KT P6SM
     OVC120 FM051500 15019G30KT P6SM OVC090=
TAF KGRB 041133Z 0412/0512 28010G17KT P6SM SCT200
     WS020/31035KT FM041400 29012G20KT P6SM SCT150 FM042300
     28005KT P6SM BKN120 FM050400 VRB03KT P6SM OVC080
     FM050900 10005KT P6SM OVC060=
KAUW 041133Z 0412/0512 27011G18KT P6SM SCT150 WS020/31035KT
     FM041400 29012G20KT P6SM BKN120 FM042300 26002KT P6SM
     BKN080 FM050900 11005KT P6SM -SN OVC050 FM051100
     12010G16KT 4SM -SN OVC035=
KEAU 041132Z 0412/0512 28007KT P6SM BKN200 FM050400 12005KT
     P6SM OVC100 FM050900 12011G17KT P6SM OVC080=
KLSE 041132Z 0412/0512 31008KT P6SM BKN120 FM050000 13005KT
     P6SM BKN090 FM051000 13010KT P6SM BKN150 WS020/15045KT=
KDBQ 041147Z 0412/0512 36010KT P6SM BKN100 FM050000 10005KT
     P6SM BKN100 FM050900 14013KT P6SM BKN250 WS015/16045KT=
TAF TAF AMD KRFD 041403Z 0414/0512 31011KT 4SM BR SCT004
     SCT200 TEMPO 0414/0415 1 1/2SM BR BKN003 FM041800
     33010KT P6SM BKN080 FM050200 05007KT P6SM BKN080
     FM050800 10012KT P6SM SCT100 BKN200=
TAF KORD 041120Z 0412/0518 30010KT P6SM SCT005 SCT200 TEMPO
     0412/0414 4SM BR BKN004 FM041800 33010KT P6SM BKN080
     FM050200 05007KT P6SM BKN080 FM050800 10012KT P6SM
     SCT100 BKN200 FM051200 14013G23KT P6SM SCT050 BKN100
     FM051600 16015G26KT P6SM -SHRA SCT020 OVC035=